sensor_id;sensor_type;location;lat;lon;timestamp;P1;durP1;ratioP1;P2;durP2;ratioP2
72603;SDS011;60645;56.968;24.196;2023-03-01T00:01:02;16.15;;;5.28;;
72603;SDS011;60645;56.968;24.196;2023-03-01T00:03:34;9.70;;;4.50;;
72603;SDS011;60645;56.968;24.196;2023-03-01T00:06:02;22.52;;;7.57;;
72603;SDS011;60645;56.968;24.196;2023-03-01T00:08:30;19.95;;;6.65;;
72603;SDS011;60645;56.968;24.196;2023-03-01T00:13:29;19.50;;;7.90;;
72603;SDS011;60645;56.968;24.196;2023-03-01T00:15:55;17.85;;;7.85;;
72603;SDS011;60645;56.968;24.196;2023-03-01T00:18:22;18.58;;;8.30;;
72603;SDS011;60645;56.968;24.196;2023-03-01T00:20:52;25.65;;;9.60;;
72603;SDS011;60645;56.968;24.196;2023-03-01T00:23:20;19.80;;;8.85;;
72603;SDS011;60645;56.968;24.196;2023-03-01T00:25:48;22.85;;;9.63;;
72603;SDS011;60645;56.968;24.196;2023-03-01T00:28:16;17.95;;;9.48;;
72603;SDS011;60645;56.968;24.196;2023-03-01T00:30:43;26.05;;;9.43;;
72603;SDS011;60645;56.968;24.196;2023-03-01T00:33:11;19.48;;;10.32;;
72603;SDS011;60645;56.968;24.196;2023-03-01T00:35:38;19.33;;;9.68;;
72603;SDS011;60645;56.968;24.196;2023-03-01T00:38:05;21.95;;;9.98;;
72603;SDS011;60645;56.968;24.196;2023-03-01T00:40:33;23.13;;;11.13;;
72603;SDS011;60645;56.968;24.196;2023-03-01T00:43:01;33.78;;;15.45;;
72603;SDS011;60645;56.968;24.196;2023-03-01T00:45:29;43.80;;;18.13;;
72603;SDS011;60645;56.968;24.196;2023-03-01T00:47:57;34.22;;;14.73;;
72603;SDS011;60645;56.968;24.196;2023-03-01T00:50:24;35.05;;;11.93;;
72603;SDS011;60645;56.968;24.196;2023-03-01T00:52:55;37.55;;;12.25;;
72603;SDS011;60645;56.968;24.196;2023-03-01T00:55:22;20.92;;;6.00;;
72603;SDS011;60645;56.968;24.196;2023-03-01T00:57:50;10.27;;;2.97;;
72603;SDS011;60645;56.968;24.196;2023-03-01T01:00:18;15.50;;;3.35;;
72603;SDS011;60645;56.968;24.196;2023-03-01T01:02:46;17.13;;;4.85;;
72603;SDS011;60645;56.968;24.196;2023-03-01T01:05:13;21.20;;;4.97;;
72603;SDS011;60645;56.968;24.196;2023-03-01T01:07:40;25.20;;;5.55;;
72603;SDS011;60645;56.968;24.196;2023-03-01T01:10:07;14.98;;;3.90;;
72603;SDS011;60645;56.968;24.196;2023-03-01T01:15:06;15.57;;;4.43;;
72603;SDS011;60645;56.968;24.196;2023-03-01T01:17:33;7.18;;;1.17;;
72603;SDS011;60645;56.968;24.196;2023-03-01T01:20:00;8.93;;;1.73;;
72603;SDS011;60645;56.968;24.196;2023-03-01T01:22:27;10.68;;;1.02;;
72603;SDS011;60645;56.968;24.196;2023-03-01T01:24:53;4.65;;;0.77;;
72603;SDS011;60645;56.968;24.196;2023-03-01T01:27:20;7.88;;;0.70;;
72603;SDS011;60645;56.968;24.196;2023-03-01T01:29:47;7.45;;;0.85;;
72603;SDS011;60645;56.968;24.196;2023-03-01T01:32:14;5.03;;;0.95;;
72603;SDS011;60645;56.968;24.196;2023-03-01T01:34:41;9.30;;;1.00;;
72603;SDS011;60645;56.968;24.196;2023-03-01T01:37:08;5.28;;;0.93;;
72603;SDS011;60645;56.968;24.196;2023-03-01T01:39:35;8.20;;;0.60;;
72603;SDS011;60645;56.968;24.196;2023-03-01T01:42:02;6.60;;;0.70;;
72603;SDS011;60645;56.968;24.196;2023-03-01T01:44:29;7.78;;;0.82;;
72603;SDS011;60645;56.968;24.196;2023-03-01T01:47:04;7.80;;;0.70;;
72603;SDS011;60645;56.968;24.196;2023-03-01T01:52:07;9.25;;;0.95;;
72603;SDS011;60645;56.968;24.196;2023-03-01T01:57:48;5.20;;;0.30;;
72603;SDS011;60645;56.968;24.196;2023-03-01T02:00:23;7.97;;;0.43;;
72603;SDS011;60645;56.968;24.196;2023-03-01T02:02:59;4.43;;;0.40;;
72603;SDS011;60645;56.968;24.196;2023-03-01T02:05:43;6.65;;;0.68;;
72603;SDS011;60645;56.968;24.196;2023-03-01T02:08:20;5.15;;;0.45;;
72603;SDS011;60645;56.968;24.196;2023-03-01T02:10:51;6.03;;;0.52;;
72603;SDS011;60645;56.968;24.196;2023-03-01T02:13:18;7.82;;;1.10;;
72603;SDS011;60645;56.968;24.196;2023-03-01T02:15:45;8.98;;;0.60;;
72603;SDS011;60645;56.968;24.196;2023-03-01T02:18:14;6.22;;;1.02;;
72603;SDS011;60645;56.968;24.196;2023-03-01T02:23:40;7.72;;;0.63;;
72603;SDS011;60645;56.968;24.196;2023-03-01T02:28:43;8.95;;;0.60;;
72603;SDS011;60645;56.968;24.196;2023-03-01T02:31:13;2.65;;;0.32;;
72603;SDS011;60645;56.968;24.196;2023-03-01T02:34:01;7.30;;;1.70;;
72603;SDS011;60645;56.968;24.196;2023-03-01T02:36:37;6.07;;;1.02;;
72603;SDS011;60645;56.968;24.196;2023-03-01T02:39:20;8.80;;;1.67;;
72603;SDS011;60645;56.968;24.196;2023-03-01T02:41:53;11.45;;;1.77;;
72603;SDS011;60645;56.968;24.196;2023-03-01T02:44:22;14.02;;;3.13;;
72603;SDS011;60645;56.968;24.196;2023-03-01T02:46:50;20.58;;;4.43;;
72603;SDS011;60645;56.968;24.196;2023-03-01T02:49:30;21.52;;;4.97;;
72603;SDS011;60645;56.968;24.196;2023-03-01T02:54:34;23.20;;;5.63;;
72603;SDS011;60645;56.968;24.196;2023-03-01T02:57:10;21.02;;;4.88;;
72603;SDS011;60645;56.968;24.196;2023-03-01T02:59:38;20.33;;;4.18;;
72603;SDS011;60645;56.968;24.196;2023-03-01T03:02:06;22.80;;;4.43;;
72603;SDS011;60645;56.968;24.196;2023-03-01T03:05:14;14.38;;;3.28;;
72603;SDS011;60645;56.968;24.196;2023-03-01T03:07:46;9.40;;;1.02;;
72603;SDS011;60645;56.968;24.196;2023-03-01T03:10:18;6.07;;;0.70;;
72603;SDS011;60645;56.968;24.196;2023-03-01T03:12:50;5.57;;;1.30;;
72603;SDS011;60645;56.968;24.196;2023-03-01T03:15:22;4.25;;;0.50;;
72603;SDS011;60645;56.968;24.196;2023-03-01T03:17:50;6.72;;;1.05;;
72603;SDS011;60645;56.968;24.196;2023-03-01T03:20:19;7.43;;;0.80;;
72603;SDS011;60645;56.968;24.196;2023-03-01T03:22:49;7.60;;;0.73;;
72603;SDS011;60645;56.968;24.196;2023-03-01T03:25:18;5.40;;;0.60;;
72603;SDS011;60645;56.968;24.196;2023-03-01T03:27:46;9.48;;;0.80;;
72603;SDS011;60645;56.968;24.196;2023-03-01T03:30:16;6.13;;;0.70;;
72603;SDS011;60645;56.968;24.196;2023-03-01T03:32:46;9.98;;;0.77;;
72603;SDS011;60645;56.968;24.196;2023-03-01T03:35:23;8.90;;;0.75;;
72603;SDS011;60645;56.968;24.196;2023-03-01T03:43:05;5.68;;;0.68;;
72603;SDS011;60645;56.968;24.196;2023-03-01T03:45:34;8.65;;;0.95;;
72603;SDS011;60645;56.968;24.196;2023-03-01T03:48:02;8.25;;;0.95;;
72603;SDS011;60645;56.968;24.196;2023-03-01T03:50:31;5.75;;;0.75;;
72603;SDS011;60645;56.968;24.196;2023-03-01T03:53:02;7.90;;;1.00;;
72603;SDS011;60645;56.968;24.196;2023-03-01T03:55:31;5.93;;;1.00;;
72603;SDS011;60645;56.968;24.196;2023-03-01T03:58:00;7.18;;;0.85;;
72603;SDS011;60645;56.968;24.196;2023-03-01T04:00:34;11.40;;;1.33;;
72603;SDS011;60645;56.968;24.196;2023-03-01T04:03:03;7.07;;;0.82;;
72603;SDS011;60645;56.968;24.196;2023-03-01T04:05:30;8.45;;;1.17;;
72603;SDS011;60645;56.968;24.196;2023-03-01T04:07:57;7.43;;;0.90;;
72603;SDS011;60645;56.968;24.196;2023-03-01T04:10:37;6.50;;;0.70;;
72603;SDS011;60645;56.968;24.196;2023-03-01T04:13:06;8.85;;;0.60;;
72603;SDS011;60645;56.968;24.196;2023-03-01T04:15:35;7.38;;;0.82;;
72603;SDS011;60645;56.968;24.196;2023-03-01T04:18:02;3.72;;;0.45;;
72603;SDS011;60645;56.968;24.196;2023-03-01T04:20:30;5.88;;;0.43;;
72603;SDS011;60645;56.968;24.196;2023-03-01T04:25:38;5.95;;;0.70;;
72603;SDS011;60645;56.968;24.196;2023-03-01T04:28:31;13.35;;;0.98;;
72603;SDS011;60645;56.968;24.196;2023-03-01T04:31:04;5.50;;;1.25;;
72603;SDS011;60645;56.968;24.196;2023-03-01T04:33:40;7.80;;;1.45;;
72603;SDS011;60645;56.968;24.196;2023-03-01T04:36:10;9.48;;;1.90;;
72603;SDS011;60645;56.968;24.196;2023-03-01T04:38:37;10.38;;;1.50;;
72603;SDS011;60645;56.968;24.196;2023-03-01T04:41:05;9.10;;;1.52;;
72603;SDS011;60645;56.968;24.196;2023-03-01T04:43:35;12.13;;;1.67;;
72603;SDS011;60645;56.968;24.196;2023-03-01T04:46:02;12.15;;;2.40;;
72603;SDS011;60645;56.968;24.196;2023-03-01T04:48:32;7.00;;;1.42;;
72603;SDS011;60645;56.968;24.196;2023-03-01T04:50:59;8.30;;;0.98;;
72603;SDS011;60645;56.968;24.196;2023-03-01T04:53:26;5.72;;;0.95;;
72603;SDS011;60645;56.968;24.196;2023-03-01T04:55:54;9.77;;;0.75;;
72603;SDS011;60645;56.968;24.196;2023-03-01T04:58:22;4.07;;;0.70;;
72603;SDS011;60645;56.968;24.196;2023-03-01T05:00:50;4.28;;;0.50;;
72603;SDS011;60645;56.968;24.196;2023-03-01T05:03:17;7.20;;;0.65;;
72603;SDS011;60645;56.968;24.196;2023-03-01T05:05:45;6.53;;;0.70;;
72603;SDS011;60645;56.968;24.196;2023-03-01T05:08:13;3.97;;;0.40;;
72603;SDS011;60645;56.968;24.196;2023-03-01T05:10:44;5.60;;;0.80;;
72603;SDS011;60645;56.968;24.196;2023-03-01T05:13:13;5.97;;;0.80;;
72603;SDS011;60645;56.968;24.196;2023-03-01T05:15:57;2.42;;;0.70;;
72603;SDS011;60645;56.968;24.196;2023-03-01T05:18:26;5.40;;;1.50;;
72603;SDS011;60645;56.968;24.196;2023-03-01T05:20:54;11.20;;;1.60;;
72603;SDS011;60645;56.968;24.196;2023-03-01T05:23:27;8.80;;;1.67;;
72603;SDS011;60645;56.968;24.196;2023-03-01T05:25:54;9.02;;;3.33;;
72603;SDS011;60645;56.968;24.196;2023-03-01T05:28:24;6.95;;;2.92;;
72603;SDS011;60645;56.968;24.196;2023-03-01T05:30:52;13.60;;;4.03;;
72603;SDS011;60645;56.968;24.196;2023-03-01T05:33:18;12.65;;;3.60;;
72603;SDS011;60645;56.968;24.196;2023-03-01T05:35:48;8.75;;;2.83;;
72603;SDS011;60645;56.968;24.196;2023-03-01T05:38:16;7.22;;;1.50;;
72603;SDS011;60645;56.968;24.196;2023-03-01T05:40:44;6.82;;;1.45;;
72603;SDS011;60645;56.968;24.196;2023-03-01T05:43:13;5.55;;;1.42;;
72603;SDS011;60645;56.968;24.196;2023-03-01T05:45:41;6.05;;;1.10;;
72603;SDS011;60645;56.968;24.196;2023-03-01T05:48:09;6.30;;;0.65;;
72603;SDS011;60645;56.968;24.196;2023-03-01T05:50:39;6.97;;;1.60;;
72603;SDS011;60645;56.968;24.196;2023-03-01T05:53:17;8.60;;;0.90;;
72603;SDS011;60645;56.968;24.196;2023-03-01T05:55:49;9.40;;;1.40;;
72603;SDS011;60645;56.968;24.196;2023-03-01T05:58:17;7.10;;;1.00;;
72603;SDS011;60645;56.968;24.196;2023-03-01T06:00:45;13.32;;;1.60;;
72603;SDS011;60645;56.968;24.196;2023-03-01T06:03:14;7.57;;;1.67;;
72603;SDS011;60645;56.968;24.196;2023-03-01T06:05:43;4.93;;;1.42;;
72603;SDS011;60645;56.968;24.196;2023-03-01T06:08:11;4.93;;;1.05;;
72603;SDS011;60645;56.968;24.196;2023-03-01T06:10:39;10.68;;;1.60;;
72603;SDS011;60645;56.968;24.196;2023-03-01T06:13:07;9.43;;;1.55;;
72603;SDS011;60645;56.968;24.196;2023-03-01T06:15:34;8.73;;;1.42;;
72603;SDS011;60645;56.968;24.196;2023-03-01T06:18:01;6.60;;;1.10;;
72603;SDS011;60645;56.968;24.196;2023-03-01T06:20:28;10.52;;;1.08;;
72603;SDS011;60645;56.968;24.196;2023-03-01T06:22:55;7.68;;;1.13;;
72603;SDS011;60645;56.968;24.196;2023-03-01T06:25:23;4.22;;;1.00;;
72603;SDS011;60645;56.968;24.196;2023-03-01T06:30:27;4.72;;;1.40;;
72603;SDS011;60645;56.968;24.196;2023-03-01T06:32:54;6.93;;;0.98;;
72603;SDS011;60645;56.968;24.196;2023-03-01T06:35:27;5.55;;;1.08;;
72603;SDS011;60645;56.968;24.196;2023-03-01T06:37:56;5.75;;;0.50;;
72603;SDS011;60645;56.968;24.196;2023-03-01T06:40:24;3.03;;;0.60;;
72603;SDS011;60645;56.968;24.196;2023-03-01T06:42:52;6.18;;;1.05;;
72603;SDS011;60645;56.968;24.196;2023-03-01T06:45:19;7.50;;;0.95;;
72603;SDS011;60645;56.968;24.196;2023-03-01T06:47:47;4.05;;;1.02;;
72603;SDS011;60645;56.968;24.196;2023-03-01T06:50:14;6.63;;;1.08;;
72603;SDS011;60645;56.968;24.196;2023-03-01T06:52:42;7.90;;;0.82;;
72603;SDS011;60645;56.968;24.196;2023-03-01T06:55:12;4.00;;;0.70;;
72603;SDS011;60645;56.968;24.196;2023-03-01T06:57:39;7.10;;;0.80;;
72603;SDS011;60645;56.968;24.196;2023-03-01T07:00:07;7.25;;;0.68;;
72603;SDS011;60645;56.968;24.196;2023-03-01T07:02:35;8.48;;;1.40;;
72603;SDS011;60645;56.968;24.196;2023-03-01T07:05:02;6.22;;;1.77;;
72603;SDS011;60645;56.968;24.196;2023-03-01T07:07:29;7.22;;;2.08;;
72603;SDS011;60645;56.968;24.196;2023-03-01T07:09:56;6.63;;;1.85;;
72603;SDS011;60645;56.968;24.196;2023-03-01T07:12:23;11.77;;;2.83;;
72603;SDS011;60645;56.968;24.196;2023-03-01T07:14:49;9.02;;;2.55;;
72603;SDS011;60645;56.968;24.196;2023-03-01T07:17:16;12.88;;;3.47;;
72603;SDS011;60645;56.968;24.196;2023-03-01T07:19:43;12.18;;;4.45;;
72603;SDS011;60645;56.968;24.196;2023-03-01T07:22:11;10.73;;;4.10;;
72603;SDS011;60645;56.968;24.196;2023-03-01T07:24:38;8.57;;;3.83;;
72603;SDS011;60645;56.968;24.196;2023-03-01T07:27:04;14.32;;;4.82;;
72603;SDS011;60645;56.968;24.196;2023-03-01T07:29:31;12.65;;;4.72;;
72603;SDS011;60645;56.968;24.196;2023-03-01T07:31:58;12.82;;;5.15;;
72603;SDS011;60645;56.968;24.196;2023-03-01T07:34:25;11.98;;;4.45;;
72603;SDS011;60645;56.968;24.196;2023-03-01T07:36:52;14.77;;;5.25;;
72603;SDS011;60645;56.968;24.196;2023-03-01T07:39:19;10.93;;;4.63;;
72603;SDS011;60645;56.968;24.196;2023-03-01T07:41:50;11.05;;;5.53;;
72603;SDS011;60645;56.968;24.196;2023-03-01T07:44:17;9.00;;;4.65;;
72603;SDS011;60645;56.968;24.196;2023-03-01T07:46:44;13.50;;;4.25;;
72603;SDS011;60645;56.968;24.196;2023-03-01T07:49:11;10.75;;;4.53;;
72603;SDS011;60645;56.968;24.196;2023-03-01T07:51:38;8.45;;;4.28;;
72603;SDS011;60645;56.968;24.196;2023-03-01T07:54:05;11.52;;;5.72;;
72603;SDS011;60645;56.968;24.196;2023-03-01T07:56:32;9.93;;;5.18;;
72603;SDS011;60645;56.968;24.196;2023-03-01T07:58:59;10.90;;;4.95;;
72603;SDS011;60645;56.968;24.196;2023-03-01T08:01:26;14.23;;;5.80;;
72603;SDS011;60645;56.968;24.196;2023-03-01T08:03:53;10.98;;;5.53;;
72603;SDS011;60645;56.968;24.196;2023-03-01T08:06:20;11.25;;;5.43;;
72603;SDS011;60645;56.968;24.196;2023-03-01T08:08:47;9.05;;;4.53;;
72603;SDS011;60645;56.968;24.196;2023-03-01T08:11:14;10.68;;;4.53;;
72603;SDS011;60645;56.968;24.196;2023-03-01T08:13:42;13.13;;;5.10;;
72603;SDS011;60645;56.968;24.196;2023-03-01T08:16:11;8.82;;;5.50;;
72603;SDS011;60645;56.968;24.196;2023-03-01T08:18:41;13.02;;;4.90;;
72603;SDS011;60645;56.968;24.196;2023-03-01T08:21:10;9.30;;;4.57;;
72603;SDS011;60645;56.968;24.196;2023-03-01T08:23:39;7.90;;;4.57;;
72603;SDS011;60645;56.968;24.196;2023-03-01T08:26:11;7.90;;;2.70;;
72603;SDS011;60645;56.968;24.196;2023-03-01T08:28:39;6.18;;;2.70;;
72603;SDS011;60645;56.968;24.196;2023-03-01T08:33:46;4.40;;;2.28;;
72603;SDS011;60645;56.968;24.196;2023-03-01T08:36:43;5.50;;;1.20;;
72603;SDS011;60645;56.968;24.196;2023-03-01T08:41:38;7.90;;;1.05;;
72603;SDS011;60645;56.968;24.196;2023-03-01T08:46:34;4.60;;;0.90;;
72603;SDS011;60645;56.968;24.196;2023-03-01T10:20:58;16.65;;;9.57;;
72603;SDS011;60645;56.968;24.196;2023-03-01T10:23:27;14.57;;;9.95;;
72603;SDS011;60645;56.968;24.196;2023-03-01T10:31:23;15.48;;;8.43;;
72603;SDS011;60645;56.968;24.196;2023-03-01T10:34:10;20.40;;;10.82;;
72603;SDS011;60645;56.968;24.196;2023-03-01T10:36:38;23.15;;;12.98;;
72603;SDS011;60645;56.968;24.196;2023-03-01T10:39:12;24.58;;;14.80;;
72603;SDS011;60645;56.968;24.196;2023-03-01T10:41:51;21.95;;;10.40;;
72603;SDS011;60645;56.968;24.196;2023-03-01T10:44:38;20.58;;;12.30;;
72603;SDS011;60645;56.968;24.196;2023-03-01T10:47:13;16.17;;;8.65;;
72603;SDS011;60645;56.968;24.196;2023-03-01T10:49:51;18.33;;;9.77;;
72603;SDS011;60645;56.968;24.196;2023-03-01T10:52:22;16.77;;;9.00;;
72603;SDS011;60645;56.968;24.196;2023-03-01T10:54:59;16.15;;;8.05;;
72603;SDS011;60645;56.968;24.196;2023-03-01T10:57:32;17.27;;;10.57;;
72603;SDS011;60645;56.968;24.196;2023-03-01T11:02:39;9.10;;;5.03;;
72603;SDS011;60645;56.968;24.196;2023-03-01T11:07:49;11.98;;;4.78;;
72603;SDS011;60645;56.968;24.196;2023-03-01T11:10:22;8.45;;;2.63;;
72603;SDS011;60645;56.968;24.196;2023-03-01T11:12:52;5.15;;;1.08;;
72603;SDS011;60645;56.968;24.196;2023-03-01T11:15:24;3.10;;;0.73;;
72603;SDS011;60645;56.968;24.196;2023-03-01T11:17:53;2.25;;;0.32;;
72603;SDS011;60645;56.968;24.196;2023-03-01T11:20:35;5.45;;;0.60;;
72603;SDS011;60645;56.968;24.196;2023-03-01T11:23:03;5.45;;;0.80;;
72603;SDS011;60645;56.968;24.196;2023-03-01T11:28:41;5.60;;;0.80;;
72603;SDS011;60645;56.968;24.196;2023-03-01T11:31:11;6.25;;;1.30;;
72603;SDS011;60645;56.968;24.196;2023-03-01T11:33:41;3.92;;;0.90;;
72603;SDS011;60645;56.968;24.196;2023-03-01T11:38:50;5.45;;;0.70;;
72603;SDS011;60645;56.968;24.196;2023-03-01T11:41:29;5.22;;;0.32;;
72603;SDS011;60645;56.968;24.196;2023-03-01T11:44:03;2.88;;;0.50;;
72603;SDS011;60645;56.968;24.196;2023-03-01T11:58:09;6.35;;;0.93;;
72603;SDS011;60645;56.968;24.196;2023-03-01T12:09:21;3.40;;;0.68;;
72603;SDS011;60645;56.968;24.196;2023-03-01T12:14:53;7.07;;;0.82;;
72603;SDS011;60645;56.968;24.196;2023-03-01T12:17:48;5.72;;;0.70;;
72603;SDS011;60645;56.968;24.196;2023-03-01T12:26:18;3.20;;;0.65;;
72603;SDS011;60645;56.968;24.196;2023-03-01T12:29:07;3.40;;;0.68;;
72603;SDS011;60645;56.968;24.196;2023-03-01T12:34:35;2.60;;;0.63;;
72603;SDS011;60645;56.968;24.196;2023-03-01T13:53:03;5.72;;;0.98;;
72603;SDS011;60645;56.968;24.196;2023-03-01T13:55:36;3.75;;;0.70;;
72603;SDS011;60645;56.968;24.196;2023-03-01T14:00:58;5.75;;;0.60;;
72603;SDS011;60645;56.968;24.196;2023-03-01T14:03:28;2.80;;;0.50;;
72603;SDS011;60645;56.968;24.196;2023-03-01T14:08:41;4.88;;;1.52;;
72603;SDS011;60645;56.968;24.196;2023-03-01T14:19:35;3.05;;;0.30;;
72603;SDS011;60645;56.968;24.196;2023-03-01T14:25:06;2.45;;;0.20;;
72603;SDS011;60645;56.968;24.196;2023-03-01T14:27:52;4.75;;;0.60;;
72603;SDS011;60645;56.968;24.196;2023-03-01T14:30:40;2.28;;;0.32;;
72603;SDS011;60645;56.968;24.196;2023-03-01T14:41:23;3.13;;;0.50;;
72603;SDS011;60645;56.968;24.196;2023-03-01T14:43:54;2.70;;;0.40;;
72603;SDS011;60645;56.968;24.196;2023-03-01T14:46:37;2.88;;;0.40;;
72603;SDS011;60645;56.968;24.196;2023-03-01T14:49:09;3.10;;;0.40;;
72603;SDS011;60645;56.968;24.196;2023-03-01T14:51:43;3.55;;;0.40;;
72603;SDS011;60645;56.968;24.196;2023-03-01T14:55:09;4.15;;;0.63;;
72603;SDS011;60645;56.968;24.196;2023-03-01T14:57:27;3.40;;;0.55;;
72603;SDS011;60645;56.968;24.196;2023-03-01T14:59:54;3.30;;;0.47;;
72603;SDS011;60645;56.968;24.196;2023-03-01T15:02:30;3.33;;;0.47;;
72603;SDS011;60645;56.968;24.196;2023-03-01T15:05:01;3.03;;;0.38;;
72603;SDS011;60645;56.968;24.196;2023-03-01T15:07:35;2.53;;;0.30;;
72603;SDS011;60645;56.968;24.196;2023-03-01T15:10:05;3.75;;;0.20;;
72603;SDS011;60645;56.968;24.196;2023-03-01T15:12:41;4.47;;;1.08;;
72603;SDS011;60645;56.968;24.196;2023-03-01T15:15:59;2.95;;;0.60;;
72603;SDS011;60645;56.968;24.196;2023-03-01T15:17:57;4.57;;;0.85;;
72603;SDS011;60645;56.968;24.196;2023-03-01T15:20:29;2.15;;;0.38;;
72603;SDS011;60645;56.968;24.196;2023-03-01T15:23:01;2.50;;;0.63;;
72603;SDS011;60645;56.968;24.196;2023-03-01T15:25:30;6.07;;;0.47;;
72603;SDS011;60645;56.968;24.196;2023-03-01T15:27:59;3.38;;;1.05;;
72603;SDS011;60645;56.968;24.196;2023-03-01T15:30:32;2.45;;;0.77;;
72603;SDS011;60645;56.968;24.196;2023-03-01T15:33:25;4.03;;;0.40;;
72603;SDS011;60645;56.968;24.196;2023-03-01T15:35:56;1.75;;;0.20;;
72603;SDS011;60645;56.968;24.196;2023-03-01T15:38:32;2.25;;;0.45;;
72603;SDS011;60645;56.968;24.196;2023-03-01T15:41:23;3.28;;;0.50;;
72603;SDS011;60645;56.968;24.196;2023-03-01T15:43:59;4.75;;;1.10;;
72603;SDS011;60645;56.968;24.196;2023-03-01T15:46:40;4.50;;;1.00;;
72603;SDS011;60645;56.968;24.196;2023-03-01T15:51:57;5.57;;;0.77;;
72603;SDS011;60645;56.968;24.196;2023-03-01T15:54:24;5.47;;;0.75;;
72603;SDS011;60645;56.968;24.196;2023-03-01T15:56:53;4.85;;;0.43;;
72603;SDS011;60645;56.968;24.196;2023-03-01T15:59:20;3.65;;;0.50;;
72603;SDS011;60645;56.968;24.196;2023-03-01T16:01:48;2.10;;;0.45;;
72603;SDS011;60645;56.968;24.196;2023-03-01T16:04:16;2.78;;;0.68;;
72603;SDS011;60645;56.968;24.196;2023-03-01T16:06:50;4.03;;;1.05;;
72603;SDS011;60645;56.968;24.196;2023-03-01T16:09:24;5.03;;;0.93;;
72603;SDS011;60645;56.968;24.196;2023-03-01T16:11:52;4.78;;;1.38;;
72603;SDS011;60645;56.968;24.196;2023-03-01T16:14:20;5.28;;;1.00;;
72603;SDS011;60645;56.968;24.196;2023-03-01T16:16:48;4.28;;;0.70;;
72603;SDS011;60645;56.968;24.196;2023-03-01T16:19:15;4.85;;;1.23;;
72603;SDS011;60645;56.968;24.196;2023-03-01T16:21:42;3.35;;;0.75;;
72603;SDS011;60645;56.968;24.196;2023-03-01T16:24:13;6.18;;;1.20;;
72603;SDS011;60645;56.968;24.196;2023-03-01T16:26:40;5.22;;;1.02;;
72603;SDS011;60645;56.968;24.196;2023-03-01T16:29:08;4.03;;;0.88;;
72603;SDS011;60645;56.968;24.196;2023-03-01T16:31:35;5.63;;;1.10;;
72603;SDS011;60645;56.968;24.196;2023-03-01T16:34:03;5.38;;;1.40;;
72603;SDS011;60645;56.968;24.196;2023-03-01T16:36:30;4.35;;;1.08;;
72603;SDS011;60645;56.968;24.196;2023-03-01T16:38:57;4.80;;;1.15;;
72603;SDS011;60645;56.968;24.196;2023-03-01T16:41:26;8.00;;;1.27;;
72603;SDS011;60645;56.968;24.196;2023-03-01T16:43:54;5.75;;;1.40;;
72603;SDS011;60645;56.968;24.196;2023-03-01T16:46:22;3.33;;;0.80;;
72603;SDS011;60645;56.968;24.196;2023-03-01T16:48:50;3.17;;;0.70;;
72603;SDS011;60645;56.968;24.196;2023-03-01T16:51:19;2.15;;;0.73;;
72603;SDS011;60645;56.968;24.196;2023-03-01T16:53:47;2.88;;;1.00;;
72603;SDS011;60645;56.968;24.196;2023-03-01T16:56:15;2.80;;;0.80;;
72603;SDS011;60645;56.968;24.196;2023-03-01T16:58:42;5.32;;;0.95;;
72603;SDS011;60645;56.968;24.196;2023-03-01T17:01:19;4.63;;;0.82;;
72603;SDS011;60645;56.968;24.196;2023-03-01T17:03:50;3.25;;;0.77;;
72603;SDS011;60645;56.968;24.196;2023-03-01T17:06:18;8.30;;;1.60;;
72603;SDS011;60645;56.968;24.196;2023-03-01T17:08:48;6.07;;;1.48;;
72603;SDS011;60645;56.968;24.196;2023-03-01T17:11:16;4.78;;;1.30;;
72603;SDS011;60645;56.968;24.196;2023-03-01T17:13:45;5.85;;;1.65;;
72603;SDS011;60645;56.968;24.196;2023-03-01T17:16:14;4.45;;;1.63;;
72603;SDS011;60645;56.968;24.196;2023-03-01T17:18:42;6.25;;;2.05;;
72603;SDS011;60645;56.968;24.196;2023-03-01T17:21:09;6.88;;;2.63;;
72603;SDS011;60645;56.968;24.196;2023-03-01T17:23:38;5.65;;;1.95;;
72603;SDS011;60645;56.968;24.196;2023-03-01T17:26:07;5.38;;;1.48;;
72603;SDS011;60645;56.968;24.196;2023-03-01T17:28:35;4.55;;;1.33;;
72603;SDS011;60645;56.968;24.196;2023-03-01T17:31:04;7.25;;;1.10;;
72603;SDS011;60645;56.968;24.196;2023-03-01T17:33:32;3.28;;;0.77;;
72603;SDS011;60645;56.968;24.196;2023-03-01T17:35:59;1.58;;;0.50;;
72603;SDS011;60645;56.968;24.196;2023-03-01T17:38:26;2.88;;;0.32;;
72603;SDS011;60645;56.968;24.196;2023-03-01T17:40:53;2.13;;;0.35;;
72603;SDS011;60645;56.968;24.196;2023-03-01T17:43:20;1.17;;;0.43;;
72603;SDS011;60645;56.968;24.196;2023-03-01T17:45:48;1.42;;;0.22;;
72603;SDS011;60645;56.968;24.196;2023-03-01T17:48:16;4.03;;;0.38;;
72603;SDS011;60645;56.968;24.196;2023-03-01T17:50:43;2.35;;;0.63;;
72603;SDS011;60645;56.968;24.196;2023-03-01T17:53:11;4.20;;;0.30;;
72603;SDS011;60645;56.968;24.196;2023-03-01T17:55:39;4.10;;;0.88;;
72603;SDS011;60645;56.968;24.196;2023-03-01T17:58:08;1.40;;;0.20;;
72603;SDS011;60645;56.968;24.196;2023-03-01T18:00:37;1.27;;;0.25;;
72603;SDS011;60645;56.968;24.196;2023-03-01T18:03:04;3.25;;;0.45;;
72603;SDS011;60645;56.968;24.196;2023-03-01T18:05:32;3.08;;;0.40;;
72603;SDS011;60645;56.968;24.196;2023-03-01T18:08:00;6.10;;;0.35;;
72603;SDS011;60645;56.968;24.196;2023-03-01T18:10:27;2.17;;;0.40;;
72603;SDS011;60645;56.968;24.196;2023-03-01T18:12:54;3.60;;;0.35;;
72603;SDS011;60645;56.968;24.196;2023-03-01T18:15:21;4.72;;;0.30;;
72603;SDS011;60645;56.968;24.196;2023-03-01T18:17:48;1.90;;;0.40;;
72603;SDS011;60645;56.968;24.196;2023-03-01T18:20:15;4.80;;;0.32;;
72603;SDS011;60645;56.968;24.196;2023-03-01T18:22:44;2.13;;;0.40;;
72603;SDS011;60645;56.968;24.196;2023-03-01T18:25:11;1.33;;;0.30;;
72603;SDS011;60645;56.968;24.196;2023-03-01T18:27:38;1.95;;;0.40;;
72603;SDS011;60645;56.968;24.196;2023-03-01T18:30:06;1.77;;;0.30;;
72603;SDS011;60645;56.968;24.196;2023-03-01T18:32:34;4.05;;;0.20;;
72603;SDS011;60645;56.968;24.196;2023-03-01T18:35:01;2.05;;;0.40;;
72603;SDS011;60645;56.968;24.196;2023-03-01T18:37:28;1.95;;;0.28;;
72603;SDS011;60645;56.968;24.196;2023-03-01T18:39:55;0.80;;;0.32;;
72603;SDS011;60645;56.968;24.196;2023-03-01T18:42:21;2.13;;;0.35;;
72603;SDS011;60645;56.968;24.196;2023-03-01T18:44:48;1.27;;;0.40;;
72603;SDS011;60645;56.968;24.196;2023-03-01T18:47:15;2.05;;;0.20;;
72603;SDS011;60645;56.968;24.196;2023-03-01T18:49:42;2.63;;;0.30;;
72603;SDS011;60645;56.968;24.196;2023-03-01T18:52:09;2.92;;;0.25;;
72603;SDS011;60645;56.968;24.196;2023-03-01T18:54:36;1.25;;;0.22;;
72603;SDS011;60645;56.968;24.196;2023-03-01T18:57:03;4.22;;;0.30;;
72603;SDS011;60645;56.968;24.196;2023-03-01T18:59:31;1.55;;;0.30;;
72603;SDS011;60645;56.968;24.196;2023-03-01T19:01:58;2.53;;;0.25;;
72603;SDS011;60645;56.968;24.196;2023-03-01T19:04:25;2.78;;;0.70;;
72603;SDS011;60645;56.968;24.196;2023-03-01T19:06:52;6.93;;;0.52;;
72603;SDS011;60645;56.968;24.196;2023-03-01T19:09:19;5.13;;;0.85;;
72603;SDS011;60645;56.968;24.196;2023-03-01T19:11:46;5.68;;;0.60;;
72603;SDS011;60645;56.968;24.196;2023-03-01T19:14:13;5.00;;;1.17;;
72603;SDS011;60645;56.968;24.196;2023-03-01T19:16:40;1.70;;;0.30;;
72603;SDS011;60645;56.968;24.196;2023-03-01T19:19:07;4.13;;;0.68;;
72603;SDS011;60645;56.968;24.196;2023-03-01T19:21:35;2.72;;;0.47;;
72603;SDS011;60645;56.968;24.196;2023-03-01T19:24:02;4.22;;;0.30;;
72603;SDS011;60645;56.968;24.196;2023-03-01T19:26:29;1.48;;;0.40;;
72603;SDS011;60645;56.968;24.196;2023-03-01T19:28:58;2.83;;;0.60;;